sensor_id;sensor_type;location;lat;lon;timestamp;P1;P4;P2;P0;N10;N4;N25;N1;N05;TS
62507;SPS30;48556;51.972;4.624;2023-05-29T00:00:53;6.26;6.02;4.78;3.08;24.87;24.81;24.47;22.69;17.50;0.83
62507;SPS30;48556;51.972;4.624;2023-05-29T00:03:19;6.81;6.54;5.16;3.27;26.45;26.40;26.01;24.04;18.42;0.83
62507;SPS30;48556;51.972;4.624;2023-05-29T00:05:44;6.42;6.16;4.87;3.11;25.11;25.05;24.69;22.84;17.54;0.82
62507;SPS30;48556;51.972;4.624;2023-05-29T00:08:10;6.91;6.62;5.20;3.25;26.31;26.25;25.85;23.81;18.13;0.83
62507;SPS30;48556;51.972;4.624;2023-05-29T00:10:35;6.11;5.86;4.60;2.89;23.35;23.30;22.95;21.15;16.12;0.83
62507;SPS30;48556;51.972;4.624;2023-05-29T00:13:02;6.51;6.24;4.91;3.08;24.92;24.87;24.49;22.58;17.23;0.82
62507;SPS30;48556;51.972;4.624;2023-05-29T00:15:28;6.09;5.84;4.61;2.93;23.67;23.62;23.27;21.51;16.48;0.82
62507;SPS30;48556;51.972;4.624;2023-05-29T00:17:55;6.26;6.01;4.79;3.11;25.09;25.04;24.70;22.94;17.76;0.82
62507;SPS30;48556;51.972;4.624;2023-05-29T00:20:21;5.41;5.20;4.16;2.72;21.95;21.90;21.61;20.11;15.61;0.81
62507;SPS30;48556;51.972;4.624;2023-05-29T00:22:46;6.30;6.05;4.78;3.04;24.60;24.55;24.20;22.38;17.17;0.80
62507;SPS30;48556;51.972;4.624;2023-05-29T00:25:12;6.98;6.69;5.24;3.26;26.33;26.27;25.87;23.79;18.05;0.82
62507;SPS30;48556;51.972;4.624;2023-05-29T00:27:37;6.50;6.25;5.00;3.28;26.44;26.39;26.04;24.24;18.84;0.82
62507;SPS30;48556;51.972;4.624;2023-05-29T00:30:03;5.84;5.62;4.51;2.97;24.00;23.95;23.64;22.04;17.18;0.82
62507;SPS30;48556;51.972;4.624;2023-05-29T00:32:29;6.44;6.20;4.98;3.28;26.47;26.42;26.07;24.31;18.95;0.80
62507;SPS30;48556;51.972;4.624;2023-05-29T00:34:55;6.42;6.17;4.91;3.17;25.64;25.59;25.24;23.43;18.11;0.81
62507;SPS30;48556;51.972;4.624;2023-05-29T00:37:21;6.03;5.80;4.66;3.07;24.80;24.75;24.43;22.78;17.76;0.82
62507;SPS30;48556;51.972;4.624;2023-05-29T00:39:48;5.56;5.36;4.37;2.96;23.90;23.86;23.58;22.13;17.47;0.80
62507;SPS30;48556;51.972;4.624;2023-05-29T00:42:14;5.86;5.64;4.55;3.04;24.51;24.46;24.15;22.59;17.70;0.81
62507;SPS30;48556;51.972;4.624;2023-05-29T00:44:39;6.64;6.36;4.97;3.08;24.89;24.83;24.44;22.45;17.00;0.87
62507;SPS30;48556;51.972;4.624;2023-05-29T00:47:05;6.39;6.14;4.86;3.11;25.10;25.05;24.69;22.86;17.57;0.86
62507;SPS30;48556;51.972;4.624;2023-05-29T00:49:31;6.04;5.80;4.62;2.98;24.08;24.03;23.70;22.00;16.99;0.83
62507;SPS30;48556;51.972;4.624;2023-05-29T00:51:59;6.44;6.17;4.85;3.04;24.59;24.53;24.16;22.27;16.97;0.85
62507;SPS30;48556;51.972;4.624;2023-05-29T00:54:28;5.77;5.53;4.34;2.71;21.95;21.90;21.57;19.86;15.11;0.84
62507;SPS30;48556;51.972;4.624;2023-05-29T00:56:58;6.58;6.31;4.94;3.07;24.87;24.81;24.43;22.47;17.06;0.85
62507;SPS30;48556;51.972;4.624;2023-05-29T00:59:26;6.68;6.41;5.04;3.17;25.66;25.60;25.22;23.26;17.76;0.85
62507;SPS30;48556;51.972;4.624;2023-05-29T01:01:54;6.61;6.33;4.96;3.08;24.94;24.88;24.50;22.53;17.10;0.88
62507;SPS30;48556;51.972;4.624;2023-05-29T01:04:21;6.76;6.47;5.03;3.08;24.91;24.85;24.45;22.39;16.85;0.88
62507;SPS30;48556;51.972;4.624;2023-05-29T01:06:49;6.99;6.70;5.26;3.29;26.59;26.53;26.13;24.06;18.31;0.86
62507;SPS30;48556;51.972;4.624;2023-05-29T01:09:14;5.89;5.66;4.51;2.91;23.50;23.45;23.13;21.47;16.59;0.85
62507;SPS30;48556;51.972;4.624;2023-05-29T01:11:57;5.24;5.04;4.09;2.75;22.14;22.10;21.83;20.45;16.07;0.81
62507;SPS30;48556;51.972;4.624;2023-05-29T01:14:48;5.58;5.38;4.37;2.97;23.91;23.87;23.59;22.14;17.46;0.81
62507;SPS30;48556;51.972;4.624;2023-05-29T01:17:24;5.40;5.21;4.27;2.94;23.72;23.68;23.41;22.05;17.51;0.80
62507;SPS30;48556;51.972;4.624;2023-05-29T01:22:40;6.29;6.03;4.72;2.93;23.69;23.63;23.27;21.39;16.22;0.86
62507;SPS30;48556;51.972;4.624;2023-05-29T01:25:58;6.05;5.80;4.56;2.87;23.19;23.14;22.79;21.02;16.04;0.85
62507;SPS30;48556;51.972;4.624;2023-05-29T01:28:22;6.11;5.86;4.63;2.93;23.65;23.59;23.25;21.47;16.43;0.85
62507;SPS30;48556;51.972;4.624;2023-05-29T01:30:52;6.32;6.06;4.80;3.06;24.73;24.68;24.32;22.50;17.28;0.84
62507;SPS30;48556;51.972;4.624;2023-05-29T01:33:22;7.22;6.91;5.39;3.32;26.89;26.83;26.40;24.23;18.31;0.85
62507;SPS30;48556;51.972;4.624;2023-05-29T01:35:47;6.51;6.24;4.90;3.06;24.77;24.71;24.34;22.41;17.06;0.85
62507;SPS30;48556;51.972;4.624;2023-05-29T01:38:13;6.44;6.18;4.86;3.05;24.66;24.61;24.24;22.34;17.03;0.85
62507;SPS30;48556;51.972;4.624;2023-05-29T01:40:38;6.48;6.20;4.80;2.90;23.47;23.41;23.02;21.01;15.72;0.87
62507;SPS30;48556;51.972;4.624;2023-05-29T01:43:04;6.41;6.13;4.76;2.89;23.40;23.34;22.95;20.98;15.74;0.87
62507;SPS30;48556;51.972;4.624;2023-05-29T01:45:31;5.94;5.70;4.52;2.89;23.35;23.30;22.97;21.27;16.36;0.83
62507;SPS30;48556;51.972;4.624;2023-05-29T01:47:57;6.29;6.03;4.71;2.92;23.63;23.58;23.21;21.32;16.15;0.86
62507;SPS30;48556;51.972;4.624;2023-05-29T01:50:23;5.93;5.69;4.49;2.84;22.99;22.94;22.60;20.87;15.98;0.84
62507;SPS30;48556;51.972;4.624;2023-05-29T01:52:50;6.66;6.36;4.87;2.85;23.11;23.05;22.63;20.50;15.08;0.86
62507;SPS30;48556;51.972;4.624;2023-05-29T01:55:15;6.98;6.66;5.06;2.91;23.62;23.55;23.11;20.83;15.18;0.87
62507;SPS30;48556;51.972;4.624;2023-05-29T01:57:41;6.15;5.89;4.56;2.76;22.31;22.25;21.88;19.98;14.95;0.86
62507;SPS30;48556;51.972;4.624;2023-05-29T02:00:07;6.20;5.93;4.58;2.76;22.35;22.29;21.92;19.99;14.93;0.87
62507;SPS30;48556;51.972;4.624;2023-05-29T02:02:40;5.78;5.53;4.31;2.65;21.48;21.43;21.09;19.35;14.61;0.85
62507;SPS30;48556;51.972;4.624;2023-05-29T02:05:07;6.12;5.86;4.53;2.74;22.18;22.12;21.75;19.86;14.86;0.85
62507;SPS30;48556;51.972;4.624;2023-05-29T02:07:34;6.02;5.76;4.44;2.65;21.45;21.39;21.02;19.13;14.22;0.86
62507;SPS30;48556;51.972;4.624;2023-05-29T02:10:02;5.85;5.59;4.30;2.54;20.61;20.56;20.20;18.34;13.58;0.85
62507;SPS30;48556;51.972;4.624;2023-05-29T02:12:28;6.07;5.80;4.45;2.64;21.36;21.31;20.93;19.01;14.06;0.84
62507;SPS30;48556;51.972;4.624;2023-05-29T02:14:54;5.87;5.61;4.33;2.60;21.04;20.99;20.63;18.80;14.01;0.85
62507;SPS30;48556;51.972;4.624;2023-05-29T02:17:20;5.69;5.44;4.20;2.53;20.47;20.42;20.07;18.30;13.65;0.85
62507;SPS30;48556;51.972;4.624;2023-05-29T02:19:46;6.41;6.13;4.72;2.81;22.73;22.67;22.27;20.25;15.03;0.86
62507;SPS30;48556;51.972;4.624;2023-05-29T02:22:11;6.26;5.98;4.58;2.68;21.76;21.71;21.31;19.31;14.22;0.89
62507;SPS30;48556;51.972;4.624;2023-05-29T02:24:37;6.77;6.44;4.84;2.70;21.90;21.84;21.39;19.10;13.66;0.93
62507;SPS30;48556;51.972;4.624;2023-05-29T02:27:03;6.82;6.50;4.86;2.68;21.76;21.69;21.23;18.90;13.42;0.94
62507;SPS30;48556;51.972;4.624;2023-05-29T02:29:28;7.19;6.85;5.12;2.83;22.98;22.91;22.43;19.98;14.19;0.92
62507;SPS30;48556;51.972;4.624;2023-05-29T02:31:54;7.06;6.72;5.05;2.82;22.94;22.87;22.40;20.03;14.35;0.90
62507;SPS30;48556;51.972;4.624;2023-05-29T02:34:20;6.86;6.54;4.94;2.81;22.80;22.74;22.29;20.02;14.47;0.89
62507;SPS30;48556;51.972;4.624;2023-05-29T02:36:48;7.01;6.68;5.03;2.82;22.94;22.87;22.41;20.06;14.40;0.89
62507;SPS30;48556;51.972;4.624;2023-05-29T02:39:14;6.65;6.34;4.76;2.65;21.56;21.49;21.05;18.81;13.45;0.91
62507;SPS30;48556;51.972;4.624;2023-05-29T02:41:39;6.82;6.50;4.89;2.75;22.34;22.28;21.83;19.54;14.04;0.91
62507;SPS30;48556;51.972;4.624;2023-05-29T02:44:05;6.25;5.97;4.57;2.68;21.76;21.70;21.31;19.31;14.24;0.87
62507;SPS30;48556;51.972;4.624;2023-05-29T02:46:30;6.28;6.00;4.62;2.75;22.27;22.21;21.82;19.85;14.73;0.87
62507;SPS30;48556;51.972;4.624;2023-05-29T02:48:56;6.09;5.82;4.46;2.63;21.28;21.23;20.85;18.91;13.96;0.88
62507;SPS30;48556;51.972;4.624;2023-05-29T02:51:21;6.53;6.22;4.71;2.68;21.78;21.72;21.30;19.14;13.87;0.89
62507;SPS30;48556;51.972;4.624;2023-05-29T02:53:47;6.03;5.76;4.37;2.52;20.44;20.38;19.99;18.02;13.14;0.86
62507;SPS30;48556;51.972;4.624;2023-05-29T02:56:13;6.11;5.84;4.50;2.70;21.83;21.78;21.40;19.49;14.51;0.84
62507;SPS30;48556;51.972;4.624;2023-05-29T02:58:41;5.36;5.12;3.95;2.37;19.22;19.17;18.85;17.18;12.81;0.85
62507;SPS30;48556;51.972;4.624;2023-05-29T03:01:07;7.18;6.83;5.10;2.81;22.80;22.73;22.25;19.80;14.03;0.91
62507;SPS30;48556;51.972;4.624;2023-05-29T03:03:33;6.54;6.23;4.68;2.62;21.28;21.22;20.79;18.59;13.32;0.89
62507;SPS30;48556;51.972;4.624;2023-05-29T03:05:59;5.63;5.38;4.17;2.52;20.39;20.34;20.00;18.26;13.66;0.84
62507;SPS30;48556;51.972;4.624;2023-05-29T03:08:26;6.04;5.78;4.47;2.69;21.81;21.75;21.39;19.51;14.58;0.86
62507;SPS30;48556;51.972;4.624;2023-05-29T03:10:53;6.03;5.75;4.39;2.57;20.80;20.75;20.37;18.43;13.54;0.89
62507;SPS30;48556;51.972;4.624;2023-05-29T03:13:19;6.56;6.26;4.74;2.71;21.98;21.92;21.50;19.33;14.03;0.88
62507;SPS30;48556;51.972;4.624;2023-05-29T03:15:45;7.12;6.78;5.08;2.81;22.85;22.78;22.30;19.88;14.16;0.89
62507;SPS30;48556;51.972;4.624;2023-05-29T03:18:10;7.02;6.68;4.97;2.70;21.94;21.87;21.39;18.96;13.34;0.90
62507;SPS30;48556;51.972;4.624;2023-05-29T03:20:36;7.52;7.14;5.26;2.78;22.61;22.54;22.02;19.35;13.35;0.94
62507;SPS30;48556;51.972;4.624;2023-05-29T03:23:02;7.36;6.99;5.14;2.69;21.92;21.84;21.33;18.70;12.83;0.94
62507;SPS30;48556;51.972;4.624;2023-05-29T03:25:29;6.19;5.89;4.39;2.40;19.51;19.45;19.04;16.91;11.94;0.92
62507;SPS30;48556;51.972;4.624;2023-05-29T03:27:55;6.02;5.74;4.32;2.43;19.73;19.67;19.27;17.26;12.40;0.91
62507;SPS30;48556;51.972;4.624;2023-05-29T03:30:20;5.85;5.58;4.25;2.47;19.99;19.94;19.57;17.67;12.93;0.89
62507;SPS30;48556;51.972;4.624;2023-05-29T03:32:46;5.65;5.39;4.11;2.39;19.36;19.31;18.95;17.13;12.55;0.87
62507;SPS30;48556;51.972;4.624;2023-05-29T03:35:11;5.17;4.94;3.76;2.17;17.61;17.56;17.23;15.54;11.35;0.88
62507;SPS30;48556;51.972;4.624;2023-05-29T03:37:37;6.04;5.76;4.34;2.45;19.92;19.87;19.47;17.46;12.58;0.90
62507;SPS30;48556;51.972;4.624;2023-05-29T03:40:02;6.42;6.11;4.57;2.53;20.52;20.46;20.03;17.85;12.69;0.92
62507;SPS30;48556;51.972;4.624;2023-05-29T03:42:30;6.10;5.81;4.36;2.42;19.69;19.63;19.23;17.16;12.25;0.91
62507;SPS30;48556;51.972;4.624;2023-05-29T03:44:58;5.53;5.27;3.96;2.22;18.01;17.96;17.59;15.73;11.28;0.90
62507;SPS30;48556;51.972;4.624;2023-05-29T03:47:24;6.11;5.81;4.31;2.33;18.97;18.91;18.49;16.37;11.48;0.93
62507;SPS30;48556;51.972;4.624;2023-05-29T03:49:50;5.81;5.53;4.14;2.28;18.55;18.49;18.11;16.12;11.45;0.91
62507;SPS30;48556;51.972;4.624;2023-05-29T03:52:16;5.78;5.51;4.13;2.30;18.70;18.64;18.26;16.31;11.65;0.91
62507;SPS30;48556;51.972;4.624;2023-05-29T03:54:42;5.36;5.10;3.84;2.16;17.53;17.48;17.13;15.33;11.02;0.91
62507;SPS30;48556;51.972;4.624;2023-05-29T03:57:07;5.51;5.26;4.04;2.39;19.39;19.34;19.00;17.25;12.77;0.86
62507;SPS30;48556;51.972;4.624;2023-05-29T03:59:34;5.49;5.24;4.00;2.34;19.00;18.95;18.60;16.84;12.39;0.87
62507;SPS30;48556;51.972;4.624;2023-05-29T04:01:59;5.31;5.08;3.90;2.31;18.73;18.69;18.36;16.68;12.35;0.86
62507;SPS30;48556;51.972;4.624;2023-05-29T04:04:25;5.94;5.68;4.35;2.56;20.77;20.71;20.34;18.45;13.62;0.88
62507;SPS30;48556;51.972;4.624;2023-05-29T04:06:50;6.67;6.36;4.82;2.75;22.34;22.27;21.84;19.64;14.25;0.90
62507;SPS30;48556;51.972;4.624;2023-05-29T04:09:16;5.76;5.49;4.14;2.33;18.88;18.83;18.45;16.52;11.87;0.89
62507;SPS30;48556;51.972;4.624;2023-05-29T04:11:41;6.33;6.03;4.54;2.55;20.75;20.68;20.27;18.15;13.04;0.89
62507;SPS30;48556;51.972;4.624;2023-05-29T04:14:09;6.13;5.84;4.43;2.54;20.59;20.53;20.13;18.12;13.16;0.87
62507;SPS30;48556;51.972;4.624;2023-05-29T04:16:35;6.59;6.28;4.74;2.69;21.81;21.74;21.31;19.12;13.80;0.88
62507;SPS30;48556;51.972;4.624;2023-05-29T04:19:01;6.34;6.05;4.56;2.58;20.96;20.90;20.49;18.38;13.26;0.88
62507;SPS30;48556;51.972;4.624;2023-05-29T04:21:26;6.75;6.43;4.85;2.74;22.22;22.15;21.71;19.46;14.02;0.89
62507;SPS30;48556;51.972;4.624;2023-05-29T04:23:52;6.99;6.66;4.98;2.75;22.38;22.31;21.85;19.47;13.85;0.89
62507;SPS30;48556;51.972;4.624;2023-05-29T04:26:17;6.52;6.20;4.63;2.54;20.67;20.61;20.17;17.94;12.71;0.89
62507;SPS30;48556;51.972;4.624;2023-05-29T04:28:45;5.88;5.61;4.27;2.47;20.00;19.94;19.56;17.65;12.88;0.86
62507;SPS30;48556;51.972;4.624;2023-05-29T04:31:11;6.03;5.75;4.38;2.54;20.63;20.57;20.19;18.24;13.35;0.87
62507;SPS30;48556;51.972;4.624;2023-05-29T04:33:39;5.43;5.18;3.94;2.27;18.41;18.36;18.01;16.24;11.84;0.88
62507;SPS30;48556;51.972;4.624;2023-05-29T04:36:05;6.31;6.02;4.61;2.71;21.98;21.92;21.52;19.51;14.39;0.86
62507;SPS30;48556;51.972;4.624;2023-05-29T04:38:31;6.98;6.64;4.98;2.76;22.40;22.34;21.87;19.50;13.89;0.90
62507;SPS30;48556;51.972;4.624;2023-05-29T04:40:56;6.52;6.21;4.65;2.58;20.95;20.88;20.45;18.24;13.00;0.88
62507;SPS30;48556;51.972;4.624;2023-05-29T04:43:24;6.80;6.47;4.85;2.68;21.80;21.74;21.28;18.97;13.50;0.90
62507;SPS30;48556;51.972;4.624;2023-05-29T04:45:53;6.54;6.23;4.66;2.58;20.99;20.93;20.49;18.27;13.01;0.89
62507;SPS30;48556;51.972;4.624;2023-05-29T04:48:19;6.26;5.97;4.50;2.55;20.70;20.64;20.23;18.15;13.10;0.87
62507;SPS30;48556;51.972;4.624;2023-05-29T04:50:44;6.48;6.19;4.73;2.77;22.45;22.39;21.99;19.90;14.64;0.86
62507;SPS30;48556;51.972;4.624;2023-05-29T04:53:10;6.15;5.88;4.53;2.70;21.87;21.82;21.44;19.51;14.50;0.87
62507;SPS30;48556;51.972;4.624;2023-05-29T04:55:36;6.42;6.14;4.70;2.76;22.40;22.34;21.93;19.88;14.66;0.86
62507;SPS30;48556;51.972;4.624;2023-05-29T04:58:02;5.71;5.47;4.26;2.61;21.16;21.11;20.77;19.04;14.36;0.82
62507;SPS30;48556;51.972;4.624;2023-05-29T05:00:27;5.90;5.64;4.33;2.58;20.86;20.81;20.45;18.59;13.78;0.84
62507;SPS30;48556;51.972;4.624;2023-05-29T05:02:53;6.50;6.21;4.75;2.78;22.56;22.50;22.09;20.01;14.74;0.86
62507;SPS30;48556;51.972;4.624;2023-05-29T05:05:19;6.49;6.19;4.70;2.70;21.87;21.81;21.39;19.26;14.02;0.87
62507;SPS30;48556;51.972;4.624;2023-05-29T05:07:45;6.80;6.49;4.95;2.88;23.35;23.29;22.86;20.66;15.14;0.87
62507;SPS30;48556;51.972;4.624;2023-05-29T05:10:11;7.24;6.91;5.25;3.04;24.65;24.58;24.12;21.76;15.90;0.86
62507;SPS30;48556;51.972;4.624;2023-05-29T05:12:36;6.01;5.75;4.45;2.69;21.77;21.71;21.35;19.49;14.58;0.82
62507;SPS30;48556;51.972;4.624;2023-05-29T05:15:02;5.79;5.55;4.36;2.73;22.10;22.06;21.72;20.02;15.25;0.82
62507;SPS30;48556;51.972;4.624;2023-05-29T05:17:29;6.35;6.08;4.72;2.88;23.33;23.28;22.90;20.96;15.76;0.84
62507;SPS30;48556;51.972;4.624;2023-05-29T05:19:55;6.45;6.17;4.73;2.79;22.64;22.58;22.18;20.13;14.88;0.86
62507;SPS30;48556;51.972;4.624;2023-05-29T05:22:20;6.05;5.79;4.53;2.80;22.66;22.60;22.25;20.43;15.47;0.84
62507;SPS30;48556;51.972;4.624;2023-05-29T05:24:46;5.67;5.45;4.32;2.78;22.42;22.38;22.06;20.44;15.75;0.82
62507;SPS30;48556;51.972;4.624;2023-05-29T05:27:12;5.65;5.43;4.32;2.79;22.57;22.52;22.21;20.62;15.94;0.80
62507;SPS30;48556;51.972;4.624;2023-05-29T05:29:38;6.24;5.97;4.65;2.85;23.03;22.97;22.60;20.71;15.60;0.84
62507;SPS30;48556;51.972;4.624;2023-05-29T05:32:03;6.20;5.94;4.61;2.82;22.79;22.73;22.36;20.47;15.39;0.84
62507;SPS30;48556;51.972;4.624;2023-05-29T05:34:29;5.47;5.26;4.17;2.67;21.54;21.50;21.19;19.62;15.10;0.83
62507;SPS30;48556;51.972;4.624;2023-05-29T05:36:55;5.47;5.26;4.21;2.75;22.20;22.15;21.86;20.35;15.81;0.82
62507;SPS30;48556;51.972;4.624;2023-05-29T05:39:20;5.45;5.24;4.19;2.73;22.07;22.03;21.73;20.22;15.69;0.81
62507;SPS30;48556;51.972;4.624;2023-05-29T05:41:46;5.34;5.14;4.11;2.68;21.64;21.59;21.30;19.82;15.38;0.80
62507;SPS30;48556;51.972;4.624;2023-05-29T05:44:12;5.65;5.44;4.34;2.82;22.81;22.76;22.46;20.88;16.19;0.80
62507;SPS30;48556;51.972;4.624;2023-05-29T05:46:37;5.61;5.39;4.31;2.82;22.78;22.73;22.43;20.88;16.22;0.78
62507;SPS30;48556;51.972;4.624;2023-05-29T05:49:03;6.38;6.11;4.78;2.96;23.93;23.88;23.50;21.59;16.35;0.82
62507;SPS30;48556;51.972;4.624;2023-05-29T05:51:28;6.79;6.49;5.00;2.98;24.14;24.08;23.67;21.53;15.99;0.83
62507;SPS30;48556;51.972;4.624;2023-05-29T05:53:54;6.69;6.40;4.97;3.02;24.48;24.42;24.02;21.97;16.49;0.82
62507;SPS30;48556;51.972;4.624;2023-05-29T05:56:19;5.98;5.73;4.49;2.80;22.61;22.56;22.21;20.43;15.51;0.81
62507;SPS30;48556;51.972;4.624;2023-05-29T05:58:45;6.13;5.88;4.67;3.00;24.26;24.21;23.87;22.13;17.06;0.79
62507;SPS30;48556;51.972;4.624;2023-05-29T06:01:10;5.93;5.69;4.48;2.82;22.81;22.76;22.42;20.69;15.80;0.81
62507;SPS30;48556;51.972;4.624;2023-05-29T06:03:36;6.32;6.05;4.73;2.92;23.61;23.55;23.18;21.28;16.10;0.84
62507;SPS30;48556;51.972;4.624;2023-05-29T06:06:05;6.70;6.41;4.99;3.06;24.78;24.72;24.32;22.29;16.80;0.83
62507;SPS30;48556;51.972;4.624;2023-05-29T06:08:31;6.69;6.40;4.94;2.96;23.98;23.92;23.51;21.43;15.97;0.85
62507;SPS30;48556;51.972;4.624;2023-05-29T06:10:57;6.83;6.54;5.09;3.12;25.23;25.17;24.76;22.69;17.09;0.84
62507;SPS30;48556;51.972;4.624;2023-05-29T06:13:22;6.56;6.30;4.97;3.15;25.49;25.43;25.06;23.16;17.74;0.82
62507;SPS30;48556;51.972;4.624;2023-05-29T06:15:48;6.59;6.33;4.99;3.16;25.55;25.49;25.12;23.20;17.76;0.84
62507;SPS30;48556;51.972;4.624;2023-05-29T06:18:13;6.72;6.43;5.00;3.06;24.79;24.73;24.33;22.29;16.79;0.85
62507;SPS30;48556;51.972;4.624;2023-05-29T06:20:39;6.46;6.19;4.86;3.04;24.59;24.54;24.16;22.25;16.94;0.84
62507;SPS30;48556;51.972;4.624;2023-05-29T06:23:05;6.70;6.42;5.02;3.11;25.15;25.09;24.70;22.69;17.18;0.83
62507;SPS30;48556;51.972;4.624;2023-05-29T06:25:31;6.75;6.47;5.05;3.12;25.21;25.15;24.75;22.72;17.18;0.81
62507;SPS30;48556;51.972;4.624;2023-05-29T06:27:59;6.02;5.78;4.61;2.98;24.08;24.03;23.70;22.01;17.02;0.77
62507;SPS30;48556;51.972;4.624;2023-05-29T06:30:26;6.81;6.51;5.04;3.05;24.69;24.63;24.22;22.12;16.55;0.81
62507;SPS30;48556;51.972;4.624;2023-05-29T06:32:52;6.48;6.21;4.86;3.01;24.35;24.30;23.92;21.98;16.66;0.79
62507;SPS30;48556;51.972;4.624;2023-05-29T06:35:17;7.11;6.81;5.30;3.25;26.28;26.22;25.80;23.64;17.81;0.82
62507;SPS30;48556;51.972;4.624;2023-05-29T06:37:46;6.42;6.16;4.83;3.02;24.40;24.34;23.97;22.07;16.79;0.82
62507;SPS30;48556;51.972;4.624;2023-05-29T06:40:12;6.02;5.77;4.49;2.75;22.27;22.22;21.86;20.03;15.10;0.82
62507;SPS30;48556;51.972;4.624;2023-05-29T06:42:38;5.77;5.54;4.36;2.75;22.21;22.16;21.83;20.14;15.38;0.80
62507;SPS30;48556;51.972;4.624;2023-05-29T06:45:03;5.59;5.37;4.27;2.75;22.19;22.14;21.83;20.24;15.61;0.80
62507;SPS30;48556;51.972;4.624;2023-05-29T06:47:29;5.68;5.47;4.39;2.90;23.43;23.38;23.08;21.53;16.80;0.77
62507;SPS30;48556;51.972;4.624;2023-05-29T06:49:55;5.68;5.47;4.43;2.98;24.04;24.00;23.70;22.20;17.45;0.76
62507;SPS30;48556;51.972;4.624;2023-05-29T06:52:21;5.25;5.07;4.17;2.88;23.20;23.16;22.91;21.59;17.17;0.74
62507;SPS30;48556;51.972;4.624;2023-05-29T06:54:46;5.00;4.84;4.04;2.88;23.17;23.13;22.90;21.73;17.48;0.75
62507;SPS30;48556;51.972;4.624;2023-05-29T06:57:12;4.72;4.57;3.84;2.78;22.39;22.36;22.15;21.08;17.06;0.74
62507;SPS30;48556;51.972;4.624;2023-05-29T06:59:37;4.96;4.80;3.98;2.80;22.56;22.52;22.29;21.09;16.90;0.75
62507;SPS30;48556;51.972;4.624;2023-05-29T07:02:03;5.02;4.85;4.00;2.79;22.48;22.44;22.20;20.96;16.73;0.77
62507;SPS30;48556;51.972;4.624;2023-05-29T07:04:29;4.87;4.70;3.89;2.73;21.99;21.96;21.73;20.54;16.43;0.76
62507;SPS30;48556;51.972;4.624;2023-05-29T07:06:54;5.22;5.04;4.14;2.86;23.03;22.99;22.74;21.43;17.04;0.76
62507;SPS30;48556;51.972;4.624;2023-05-29T07:09:20;4.88;4.72;3.88;2.68;21.62;21.58;21.34;20.12;16.01;0.76
62507;SPS30;48556;51.972;4.624;2023-05-29T07:11:45;5.41;5.22;4.24;2.88;23.19;23.15;22.87;21.46;16.93;0.75
62507;SPS30;48556;51.972;4.624;2023-05-29T07:14:11;4.67;4.52;3.75;2.65;21.35;21.31;21.10;19.98;16.03;0.71
62507;SPS30;48556;51.972;4.624;2023-05-29T07:16:37;4.92;4.76;4.00;2.88;23.18;23.15;22.93;21.81;17.62;0.71
62507;SPS30;48556;51.972;4.624;2023-05-29T07:19:03;4.57;4.42;3.69;2.64;21.25;21.22;21.01;19.95;16.07;0.70
62507;SPS30;48556;51.972;4.624;2023-05-29T07:21:29;4.93;4.78;3.99;2.85;22.91;22.88;22.66;21.50;17.31;0.72
62507;SPS30;48556;51.972;4.624;2023-05-29T07:23:56;4.84;4.68;3.87;2.71;21.83;21.79;21.56;20.38;16.29;0.75
62507;SPS30;48556;51.972;4.624;2023-05-29T07:26:22;5.13;4.96;4.11;2.90;23.34;23.30;23.06;21.82;17.48;0.78
62507;SPS30;48556;51.972;4.624;2023-05-29T07:28:48;5.26;5.08;4.17;2.89;23.27;23.23;22.97;21.65;17.23;0.78
62507;SPS30;48556;51.972;4.624;2023-05-29T07:31:14;4.91;4.75;3.90;2.70;21.77;21.74;21.50;20.27;16.13;0.76
62507;SPS30;48556;51.972;4.624;2023-05-29T07:33:40;4.62;4.46;3.67;2.56;20.60;20.57;20.35;19.20;15.31;0.77
62507;SPS30;48556;51.972;4.624;2023-05-29T07:36:06;4.24;4.11;3.48;2.55;20.50;20.47;20.29;19.36;15.73;0.73
62507;SPS30;48556;51.972;4.624;2023-05-29T07:38:32;4.25;4.13;3.52;2.62;21.07;21.04;20.87;19.97;16.32;0.73
62507;SPS30;48556;51.972;4.624;2023-05-29T07:40:58;3.94;3.84;3.33;2.55;20.48;20.46;20.31;19.55;16.14;0.72
62507;SPS30;48556;51.972;4.624;2023-05-29T07:43:24;4.22;4.11;3.52;2.65;21.26;21.24;21.07;20.20;16.57;0.71
62507;SPS30;48556;51.972;4.624;2023-05-29T07:45:49;4.48;4.35;3.74;2.82;22.64;22.62;22.44;21.53;17.68;0.72
62507;SPS30;48556;51.972;4.624;2023-05-29T07:48:15;3.88;3.78;3.28;2.53;20.28;20.26;20.12;19.38;16.02;0.72
62507;SPS30;48556;51.972;4.624;2023-05-29T07:50:41;3.51;3.43;3.03;2.39;19.18;19.16;19.05;18.44;15.37;0.72
62507;SPS30;48556;51.972;4.624;2023-05-29T07:53:06;3.62;3.54;3.16;2.54;20.40;20.38;20.27;19.69;16.50;0.69
62507;SPS30;48556;51.972;4.624;2023-05-29T07:55:33;3.61;3.53;3.10;2.43;19.50;19.48;19.35;18.71;15.56;0.70
62507;SPS30;48556;51.972;4.624;2023-05-29T07:57:59;3.83;3.74;3.30;2.60;20.89;20.87;20.74;20.07;16.72;0.68
62507;SPS30;48556;51.972;4.624;2023-05-29T08:00:25;3.51;3.43;3.07;2.48;19.90;19.88;19.78;19.22;16.14;0.67
62507;SPS30;48556;51.972;4.624;2023-05-29T08:02:51;3.62;3.54;3.16;2.54;20.36;20.34;20.23;19.65;16.47;0.66
62507;SPS30;48556;51.972;4.624;2023-05-29T08:05:17;3.82;3.74;3.31;2.64;21.19;21.16;21.04;20.40;17.05;0.66
62507;SPS30;48556;51.972;4.624;2023-05-29T08:07:42;3.67;3.58;3.14;2.45;19.67;19.65;19.52;18.85;15.66;0.68
62507;SPS30;48556;51.972;4.624;2023-05-29T08:10:09;3.73;3.65;3.22;2.54;20.42;20.40;20.27;19.63;16.36;0.69
62507;SPS30;48556;51.972;4.624;2023-05-29T08:12:34;3.76;3.68;3.27;2.62;21.00;20.98;20.86;20.25;16.95;0.69
62507;SPS30;48556;51.972;4.624;2023-05-29T08:15:01;3.63;3.55;3.18;2.57;20.61;20.59;20.48;19.91;16.71;0.68
62507;SPS30;48556;51.972;4.624;2023-05-29T08:17:27;3.83;3.74;3.30;2.61;20.94;20.91;20.79;20.12;16.78;0.68
62507;SPS30;48556;51.972;4.624;2023-05-29T08:19:53;3.56;3.49;3.15;2.58;20.69;20.67;20.57;20.05;16.90;0.66
62507;SPS30;48556;51.972;4.624;2023-05-29T08:22:18;3.21;3.16;2.90;2.44;19.51;19.50;19.42;19.01;16.14;0.64
62507;SPS30;48556;51.972;4.624;2023-05-29T08:24:44;3.27;3.22;2.93;2.44;19.59;19.57;19.49;19.05;16.14;0.68
62507;SPS30;48556;51.972;4.624;2023-05-29T08:27:09;3.52;3.46;3.17;2.65;21.26;21.25;21.16;20.70;17.57;0.68
62507;SPS30;48556;51.972;4.624;2023-05-29T08:29:35;3.35;3.29;3.01;2.52;20.19;20.18;20.09;19.65;16.67;0.67
62507;SPS30;48556;51.972;4.624;2023-05-29T08:32:01;3.39;3.33;3.02;2.50;20.06;20.05;19.96;19.48;16.47;0.68
62507;SPS30;48556;51.972;4.624;2023-05-29T08:34:27;3.51;3.46;3.17;2.65;21.26;21.25;21.16;20.71;17.57;0.65
62507;SPS30;48556;51.972;4.624;2023-05-29T08:36:53;3.36;3.31;3.03;2.54;20.36;20.35;20.26;19.83;16.82;0.64
62507;SPS30;48556;51.972;4.624;2023-05-29T08:39:20;3.25;3.20;2.96;2.52;20.16;20.14;20.07;19.68;16.76;0.65
62507;SPS30;48556;51.972;4.624;2023-05-29T08:44:32;3.36;3.31;3.06;2.60;20.86;20.84;20.77;20.37;17.35;0.65
62507;SPS30;48556;51.972;4.624;2023-05-29T08:47:00;3.08;3.03;2.81;2.39;19.16;19.15;19.08;18.72;15.96;0.65
62507;SPS30;48556;51.972;4.624;2023-05-29T08:49:28;2.96;2.93;2.78;2.47;19.73;19.72;19.67;19.42;16.73;0.62
62507;SPS30;48556;51.972;4.624;2023-05-29T08:52:05;3.02;2.98;2.82;2.48;19.82;19.81;19.76;19.49;16.74;0.62
62507;SPS30;48556;51.972;4.624;2023-05-29T08:54:37;3.10;3.06;2.84;2.42;19.37;19.36;19.29;18.93;16.15;0.66
62507;SPS30;48556;51.972;4.624;2023-05-29T08:57:05;3.10;3.07;2.89;2.54;20.28;20.27;20.22;19.93;17.11;0.63
62507;SPS30;48556;51.972;4.624;2023-05-29T08:59:30;2.88;2.86;2.73;2.43;19.42;19.41;19.37;19.14;16.51;0.62
62507;SPS30;48556;51.972;4.624;2023-05-29T09:01:58;2.94;2.90;2.71;2.35;18.80;18.78;18.73;18.42;15.77;0.64
62507;SPS30;48556;51.972;4.624;2023-05-29T09:04:24;3.35;3.30;3.03;2.54;20.38;20.37;20.28;19.86;16.86;0.68
62507;SPS30;48556;51.972;4.624;2023-05-29T09:06:49;3.46;3.39;3.03;2.45;19.61;19.60;19.49;18.94;15.90;0.70
62507;SPS30;48556;51.972;4.624;2023-05-29T09:09:17;3.55;3.47;3.07;2.45;19.63;19.61;19.49;18.90;15.79;0.70
62507;SPS30;48556;51.972;4.624;2023-05-29T09:11:43;3.80;3.71;3.26;2.56;20.51;20.49;20.36;19.69;16.37;0.69
62507;SPS30;48556;51.972;4.624;2023-05-29T09:17:09;3.46;3.40;3.11;2.59;20.77;20.76;20.67;20.20;17.12;0.68